createdAt,value
2022-09-12T00:02:34.968Z,22.93
2022-09-12T00:05:22.468Z,19.57
2022-09-12T00:08:09.562Z,21.93
2022-09-12T00:10:56.564Z,19.53
2022-09-12T00:13:44.094Z,22.93
2022-09-12T00:16:33.933Z,21.83
2022-09-12T00:19:20.937Z,22.13
2022-09-12T00:22:07.981Z,21.53
2022-09-12T00:24:54.913Z,20.33
2022-09-12T00:27:41.898Z,23.03
2022-09-12T00:30:28.936Z,21.47
2022-09-12T00:33:17.764Z,20.10
2022-09-12T00:36:07.723Z,21.17
2022-09-12T00:38:55.039Z,20.77
2022-09-12T00:41:42.068Z,18.20
2022-09-12T00:44:28.969Z,17.83
2022-09-12T00:47:27.734Z,18.23
2022-09-12T00:50:17.721Z,19.03
2022-09-12T00:53:07.834Z,18.87
2022-09-12T00:55:57.007Z,20.87
2022-09-12T00:58:51.203Z,21.93
2022-09-12T01:01:40.903Z,20.40
2022-09-12T01:04:29.146Z,20.83
2022-09-12T01:07:16.915Z,16.87
2022-09-12T01:10:06.098Z,21.17
2022-09-12T01:12:54.017Z,19.83
2022-09-12T01:15:42.462Z,20.23
2022-09-12T01:18:49.077Z,21.03
2022-09-12T01:22:14.710Z,21.00
2022-09-12T01:25:18.067Z,21.17
2022-09-12T01:28:44.377Z,24.03
2022-09-12T01:31:45.229Z,24.33
2022-09-12T01:35:01.298Z,24.07
2022-09-12T01:37:57.771Z,20.53
2022-09-12T01:40:49.512Z,20.07
2022-09-12T01:43:56.560Z,19.03
2022-09-12T01:47:20.200Z,21.07
2022-09-12T01:50:39.853Z,18.40
2022-09-12T01:53:34.096Z,22.43
2022-09-12T01:56:27.865Z,19.60
2022-09-12T01:59:28.296Z,24.87
2022-09-12T02:02:38.481Z,25.63
2022-09-12T02:05:34.183Z,24.33
2022-09-12T02:08:38.888Z,23.27
2022-09-12T02:11:26.880Z,22.90
2022-09-12T02:14:28.000Z,20.23
2022-09-12T02:17:37.257Z,22.40
2022-09-12T02:20:47.464Z,20.23
2022-09-12T02:24:17.957Z,21.10
2022-09-12T02:28:03.225Z,22.17
2022-09-12T02:31:23.226Z,22.60
2022-09-12T02:34:23.093Z,21.93
2022-09-12T02:40:35.619Z,24.03
2022-09-12T02:43:22.974Z,24.10
2022-09-12T02:46:19.229Z,19.73
2022-09-12T02:49:09.259Z,22.60
2022-09-12T02:51:57.015Z,21.93
2022-09-12T02:54:45.570Z,23.10
2022-09-12T02:57:33.454Z,26.87
2022-09-12T03:00:21.234Z,25.90
2022-09-12T03:03:30.771Z,26.73
2022-09-12T03:06:28.635Z,23.60
2022-09-12T03:09:43.304Z,25.90
2022-09-12T03:12:49.663Z,21.03
2022-09-12T03:15:48.951Z,31.90
2022-09-12T03:18:43.904Z,22.13
2022-09-12T03:21:55.556Z,26.67
2022-09-12T03:24:56.585Z,25.70
2022-09-12T03:27:57.139Z,21.27
2022-09-12T03:30:47.857Z,23.63
2022-09-12T03:33:35.048Z,24.57
2022-09-12T03:36:29.534Z,22.87
2022-09-12T03:39:17.466Z,21.53
2022-09-12T03:42:04.838Z,23.80
2022-09-12T03:44:52.102Z,23.87
2022-09-12T03:47:40.544Z,25.80
2022-09-12T03:50:27.932Z,25.33
2022-09-12T03:53:17.322Z,25.13
2022-09-12T04:00:11.047Z,21.93
2022-09-12T04:02:58.275Z,23.10
2022-09-12T04:05:46.576Z,25.10
2022-09-12T04:08:34.874Z,25.23
2022-09-12T04:11:23.717Z,22.23
2022-09-12T04:14:20.306Z,25.17
2022-09-12T04:17:08.391Z,23.23
2022-09-12T04:19:55.538Z,24.87
2022-09-12T04:22:44.394Z,25.83
2022-09-12T04:25:31.585Z,24.70
2022-09-12T04:28:18.595Z,21.43
2022-09-12T04:31:08.451Z,25.47
2022-09-12T04:34:01.057Z,25.87
2022-09-12T04:36:48.074Z,23.30
2022-09-12T04:39:35.025Z,21.90
2022-09-12T04:42:22.421Z,24.87
2022-09-12T04:45:09.842Z,20.90
2022-09-12T04:47:56.794Z,21.50
2022-09-12T04:50:44.049Z,22.90
2022-09-12T04:53:31.044Z,23.70
2022-09-12T04:56:19.155Z,20.63
2022-09-12T04:59:06.980Z,23.57
2022-09-12T05:01:54.526Z,21.60
2022-09-12T05:04:41.489Z,22.87
2022-09-12T05:07:28.577Z,23.70
2022-09-12T05:10:15.851Z,26.10
2022-09-12T05:13:02.973Z,21.27
2022-09-12T05:15:58.313Z,22.50
2022-09-12T05:18:46.908Z,23.60
2022-09-12T05:21:37.266Z,23.47
2022-09-12T05:24:24.889Z,27.77
2022-09-12T05:27:11.917Z,22.13
2022-09-12T05:29:59.151Z,24.93
2022-09-12T05:32:46.053Z,25.93
2022-09-12T05:35:33.482Z,24.93
2022-09-12T05:38:20.543Z,28.13
2022-09-12T05:41:17.082Z,28.80
2022-09-12T05:44:07.220Z,23.07
2022-09-12T05:46:54.185Z,29.07
2022-09-12T05:49:41.694Z,23.70
2022-09-12T05:52:29.477Z,25.03
2022-09-12T05:55:17.279Z,31.17
2022-09-12T05:58:04.404Z,25.17
2022-09-12T06:00:51.337Z,28.83
2022-09-12T06:03:46.531Z,26.97
2022-09-12T06:06:37.730Z,29.53
2022-09-12T06:09:25.825Z,26.13
2022-09-12T06:12:13.740Z,27.13
2022-09-12T06:15:00.736Z,26.07
2022-09-12T06:17:51.381Z,31.50
2022-09-12T06:20:38.662Z,31.60
2022-09-12T06:23:26.976Z,24.17
2022-09-12T06:26:16.892Z,28.87
2022-09-12T06:29:14.885Z,27.47
2022-09-12T06:32:04.986Z,28.07
2022-09-12T06:34:56.806Z,28.43
2022-09-12T06:38:04.006Z,28.63
2022-09-12T06:41:22.206Z,25.43
2022-09-12T06:44:37.959Z,28.97
2022-09-12T06:47:33.462Z,33.00
2022-09-12T06:50:24.884Z,31.07
2022-09-12T06:53:38.604Z,30.93
2022-09-12T06:57:13.750Z,27.13
2022-09-12T07:00:39.143Z,28.43
2022-09-12T07:35:27.963Z,20.83
2022-09-12T07:38:15.390Z,16.50
2022-09-12T07:43:57.710Z,18.97
2022-09-12T07:46:44.818Z,16.27
2022-09-12T07:49:32.214Z,14.77
2022-09-12T07:52:20.116Z,16.87
2022-09-12T07:55:07.347Z,13.93
2022-09-12T07:57:54.417Z,12.80
2022-09-12T08:00:41.377Z,11.93
2022-09-12T08:03:28.478Z,15.33
2022-09-12T08:06:20.022Z,12.37
2022-09-12T08:09:07.945Z,13.87
2022-09-12T08:11:54.906Z,11.07
2022-09-12T08:14:41.883Z,11.83
2022-09-12T08:17:29.945Z,11.50
2022-09-12T08:20:18.118Z,11.33
2022-09-12T08:23:05.366Z,10.27
2022-09-12T08:25:56.281Z,11.03
2022-09-12T08:28:45.797Z,8.93
2022-09-12T08:31:36.621Z,9.70
2022-09-12T08:34:24.994Z,9.03
2022-09-12T08:37:12.015Z,7.77
2022-09-12T08:39:59.082Z,7.67
2022-09-12T08:43:18.333Z,6.97
2022-09-12T08:46:13.969Z,7.43
2022-09-12T08:49:03.990Z,6.87
2022-09-12T08:51:52.278Z,8.20
2022-09-12T08:54:40.021Z,8.93
2022-09-12T08:57:27.377Z,7.87
2022-09-12T09:00:16.501Z,7.00
2022-09-12T09:03:25.755Z,7.20
2022-09-12T09:06:35.811Z,7.20
2022-09-12T09:09:39.584Z,7.37
2022-09-12T09:12:36.393Z,8.77
2022-09-12T09:15:44.548Z,6.83
2022-09-12T09:18:35.894Z,6.73
2022-09-12T09:21:46.680Z,6.13
2022-09-12T09:24:40.402Z,5.13
2022-09-12T09:27:40.436Z,7.10
2022-09-12T09:30:29.078Z,6.33
2022-09-12T09:33:22.318Z,4.37
2022-09-12T09:36:33.122Z,5.20
2022-09-12T09:39:33.800Z,4.73
2022-09-12T09:42:33.078Z,5.10
2022-09-12T09:45:24.233Z,4.73
2022-09-12T09:48:11.327Z,4.60
2022-09-12T09:51:05.326Z,4.00
2022-09-12T09:53:55.194Z,8.10
2022-09-12T09:56:43.104Z,4.53
2022-09-12T09:59:32.040Z,6.37
2022-09-12T10:02:24.243Z,6.00
2022-09-12T10:05:17.245Z,5.40
2022-09-12T10:08:07.263Z,5.80
2022-09-12T10:10:56.278Z,4.83
2022-09-12T10:13:56.880Z,4.33
2022-09-12T10:16:54.953Z,4.93
2022-09-12T10:19:42.050Z,3.70
2022-09-12T10:22:29.654Z,5.10
2022-09-12T10:25:20.074Z,4.57
2022-09-12T10:28:27.179Z,4.43
2022-09-12T10:31:17.320Z,5.80
2022-09-12T10:34:05.758Z,6.17
2022-09-12T10:36:59.050Z,3.47
2022-09-12T10:39:57.397Z,3.33
2022-09-12T10:42:56.271Z,4.30
2022-09-12T10:46:18.738Z,4.10
2022-09-12T10:49:23.645Z,3.67
2022-09-12T10:52:27.621Z,4.60
2022-09-12T10:55:19.752Z,4.20
2022-09-12T10:58:22.800Z,4.77
2022-09-12T11:01:24.331Z,4.73
2022-09-12T11:04:29.659Z,4.80
2022-09-12T11:08:01.857Z,3.97
2022-09-12T11:11:14.014Z,4.00
2022-09-12T11:14:07.087Z,5.03
2022-09-12T11:17:21.464Z,4.33
2022-09-12T11:20:23.662Z,5.37
2022-09-12T11:23:40.225Z,5.37
2022-09-12T11:26:49.004Z,3.83
2022-09-12T11:29:52.377Z,3.00
2022-09-12T11:33:05.966Z,3.53
2022-09-12T11:35:55.471Z,3.50
2022-09-12T11:39:21.717Z,4.40
2022-09-12T11:42:17.017Z,5.03
2022-09-12T11:45:13.676Z,3.97
2022-09-12T11:48:07.769Z,4.70
2022-09-12T11:50:55.102Z,4.63
2022-09-12T11:53:45.366Z,6.60
2022-09-12T11:56:38.341Z,5.23
2022-09-12T11:59:43.323Z,6.47
2022-09-12T12:02:39.050Z,4.82
2022-09-12T12:05:31.589Z,5.93
2022-09-12T12:08:21.288Z,5.90
2022-09-12T12:11:10.390Z,6.27
2022-09-12T12:14:24.706Z,4.43
2022-09-12T12:17:20.673Z,10.10
2022-09-12T12:20:17.716Z,5.60
2022-09-12T12:23:04.734Z,5.07
2022-09-12T12:25:55.221Z,3.97
2022-09-12T12:28:42.145Z,2.83
2022-09-12T12:31:29.178Z,2.40
2022-09-12T12:34:40.015Z,3.45
2022-09-12T12:37:29.759Z,4.47
2022-09-12T12:40:25.810Z,11.90
2022-09-12T12:43:33.070Z,6.00
2022-09-12T12:46:27.154Z,3.97
2022-09-12T12:49:29.590Z,4.72
2022-09-12T12:52:18.737Z,4.13
2022-09-12T12:55:06.298Z,4.68
2022-09-12T12:57:55.698Z,4.00
2022-09-12T13:00:44.747Z,3.22
2022-09-12T13:03:34.270Z,3.50
2022-09-12T13:06:36.928Z,3.20
2022-09-12T13:09:37.625Z,3.40
2022-09-12T13:12:30.142Z,4.18
2022-09-12T13:15:30.252Z,3.88
2022-09-12T13:18:23.463Z,2.58
2022-09-12T13:21:13.477Z,2.97
2022-09-12T13:24:22.350Z,4.20
2022-09-12T13:27:25.471Z,3.78
2022-09-12T13:30:15.699Z,4.22
2022-09-12T13:33:08.857Z,3.37
2022-09-12T13:36:27.110Z,3.08
2022-09-12T13:39:45.211Z,3.88
2022-09-12T13:42:39.545Z,3.00
2022-09-12T13:45:27.850Z,4.25
2022-09-12T13:48:22.427Z,3.67
2022-09-12T13:51:23.155Z,2.57
2022-09-12T13:54:23.841Z,3.58
2022-09-12T13:57:34.924Z,3.13
2022-09-12T14:00:22.676Z,3.33
2022-09-12T14:04:32.270Z,3.08
2022-09-12T14:07:22.285Z,3.00
2022-09-12T14:10:20.155Z,2.97
2022-09-12T14:13:19.936Z,3.35
2022-09-12T14:16:10.078Z,3.67
2022-09-12T14:18:57.704Z,3.53
2022-09-12T14:25:25.969Z,2.85
2022-09-12T14:28:23.397Z,3.55
2022-09-12T14:31:16.046Z,3.15
2022-09-12T14:34:15.264Z,3.20
2022-09-12T14:37:06.888Z,4.30
2022-09-12T14:39:54.012Z,3.17
2022-09-12T14:42:43.217Z,3.50
2022-09-12T14:45:32.335Z,3.03
2022-09-12T14:48:20.215Z,4.03
2022-09-12T14:51:07.565Z,3.72
2022-09-12T14:53:54.965Z,4.97
2022-09-12T14:56:48.170Z,4.05
2022-09-12T14:59:35.052Z,4.60
2022-09-12T15:02:26.400Z,4.32
2022-09-12T15:05:20.383Z,4.00
2022-09-12T15:08:15.330Z,4.72
2022-09-12T15:11:02.693Z,4.15
2022-09-12T15:13:50.166Z,4.65
2022-09-12T15:16:37.765Z,3.75
2022-09-12T15:19:24.746Z,4.43
2022-09-12T15:22:14.059Z,4.90
2022-09-12T15:25:04.285Z,4.15
2022-09-12T15:27:53.838Z,6.47
2022-09-12T15:30:40.894Z,2.97
2022-09-12T15:33:27.931Z,4.63
2022-09-12T15:36:18.407Z,5.57
2022-09-12T15:39:05.509Z,5.60
2022-09-12T15:41:52.658Z,4.50
2022-09-12T15:44:40.185Z,3.20
2022-09-12T15:47:27.132Z,4.10
2022-09-12T15:50:14.502Z,3.88
2022-09-12T15:53:02.026Z,4.10
2022-09-12T15:55:48.986Z,4.05
2022-09-12T15:58:35.985Z,4.18
2022-09-12T16:01:23.079Z,4.63
2022-09-12T16:04:24.734Z,4.78
2022-09-12T16:07:11.851Z,3.72
2022-09-12T16:09:58.974Z,4.03
2022-09-12T16:12:46.413Z,4.70
2022-09-12T16:15:33.403Z,4.43
2022-09-12T16:18:20.447Z,4.40
2022-09-12T16:21:11.464Z,5.78
2022-09-12T16:24:02.358Z,5.13
2022-09-12T16:26:49.440Z,4.43
2022-09-12T16:29:41.301Z,4.17
2022-09-12T16:32:28.435Z,4.13
2022-09-12T16:35:15.473Z,3.63
2022-09-12T16:38:02.486Z,4.33
2022-09-12T16:40:50.097Z,4.20
2022-09-12T16:43:37.576Z,3.90
2022-09-12T16:46:30.444Z,4.60
2022-09-12T16:49:17.499Z,6.10
2022-09-12T16:52:05.507Z,5.43
2022-09-12T16:54:52.573Z,4.93
2022-09-12T16:57:39.486Z,6.97
2022-09-12T17:00:26.618Z,6.63
2022-09-12T17:03:14.211Z,5.17
2022-09-12T17:06:07.805Z,7.03
2022-09-12T17:08:58.154Z,7.97
2022-09-12T17:11:47.935Z,5.60
2022-09-12T17:14:38.174Z,5.00
2022-09-12T17:17:25.315Z,4.00
2022-09-12T17:20:12.309Z,4.40
2022-09-12T17:23:00.183Z,12.40
2022-09-12T17:25:51.885Z,6.17
2022-09-12T17:28:39.838Z,6.27
2022-09-12T17:31:27.741Z,4.47
2022-09-12T17:34:16.406Z,5.33
2022-09-12T17:37:03.459Z,6.03
2022-09-12T17:39:50.586Z,5.47
2022-09-12T17:42:37.688Z,5.47
2022-09-12T17:45:24.647Z,5.70
2022-09-12T17:48:11.919Z,4.27
2022-09-12T17:50:59.399Z,5.47
2022-09-12T17:53:46.650Z,4.23
2022-09-12T17:56:35.251Z,4.23
2022-09-12T17:59:24.859Z,4.20
2022-09-12T18:02:12.988Z,4.57
2022-09-12T18:05:00.708Z,4.17
2022-09-12T18:07:48.166Z,5.53
2022-09-12T18:10:35.969Z,6.23
2022-09-12T18:13:23.435Z,4.57
2022-09-12T18:16:12.341Z,4.33
2022-09-12T18:19:01.575Z,4.67
2022-09-12T18:21:48.558Z,4.40
2022-09-12T18:24:36.790Z,6.23
2022-09-12T18:27:23.980Z,5.07
2022-09-12T18:30:21.642Z,6.57
2022-09-12T18:33:08.879Z,4.83
2022-09-12T18:35:56.207Z,4.73
2022-09-12T18:38:44.935Z,6.93
2022-09-12T18:41:32.697Z,4.10
2022-09-12T18:44:19.899Z,4.90
2022-09-12T18:47:07.479Z,5.87
2022-09-12T18:49:54.653Z,5.17
2022-09-12T18:52:41.696Z,6.43
2022-09-12T18:55:30.539Z,5.53
2022-09-12T18:58:21.159Z,5.13
2022-09-12T19:01:23.322Z,4.17
2022-09-12T19:04:12.339Z,6.40
2022-09-12T19:06:59.674Z,6.10
2022-09-12T19:09:46.939Z,7.27
2022-09-12T19:12:33.878Z,6.60
2022-09-12T19:15:20.855Z,4.97
2022-09-12T19:18:09.387Z,5.60
2022-09-12T19:20:56.413Z,5.93
2022-09-12T19:23:44.002Z,5.63
2022-09-12T19:26:32.092Z,5.83
2022-09-12T19:29:19.090Z,5.63
2022-09-12T19:32:06.103Z,7.60
2022-09-12T19:34:53.303Z,8.30
2022-09-12T19:37:40.278Z,5.90
2022-09-12T19:40:28.102Z,6.97
2022-09-12T19:43:15.124Z,6.77
2022-09-12T19:46:02.602Z,5.60
2022-09-12T19:48:50.459Z,5.43
2022-09-12T19:51:37.824Z,7.00
2022-09-12T19:54:25.082Z,6.17
2022-09-12T19:57:12.332Z,6.63
2022-09-12T19:59:59.283Z,7.83
2022-09-12T20:02:51.457Z,5.87
2022-09-12T20:06:01.709Z,8.17
2022-09-12T20:08:49.062Z,5.47
2022-09-12T20:11:36.200Z,6.03
2022-09-12T20:14:23.261Z,6.30
2022-09-12T20:17:10.175Z,6.43
2022-09-12T20:19:58.117Z,8.00
2022-09-12T20:22:49.791Z,5.07
2022-09-12T20:25:36.722Z,5.80
2022-09-12T20:28:23.849Z,5.23
2022-09-12T20:31:14.408Z,5.90
2022-09-12T20:34:01.569Z,5.10
2022-09-12T20:36:49.014Z,6.03
2022-09-12T20:39:36.087Z,7.13
2022-09-12T20:42:23.321Z,5.60
2022-09-12T20:45:10.573Z,6.00
2022-09-12T20:47:57.557Z,5.23
2022-09-12T20:50:44.682Z,5.67
2022-09-12T20:53:34.989Z,7.53
2022-09-12T20:56:24.500Z,7.33
2022-09-12T20:59:12.847Z,6.67
2022-09-12T21:02:00.012Z,5.83
2022-09-12T21:04:47.122Z,6.50
2022-09-12T21:07:34.180Z,5.93
2022-09-12T21:10:21.275Z,6.40
2022-09-12T21:13:10.034Z,6.27
2022-09-12T21:16:05.401Z,5.80
2022-09-12T21:18:57.510Z,5.43
2022-09-12T21:21:44.509Z,7.87
2022-09-12T21:24:31.537Z,6.90
2022-09-12T21:27:18.527Z,9.53
2022-09-12T21:30:06.145Z,6.97
2022-09-12T21:32:53.578Z,7.20
2022-09-12T21:35:40.478Z,7.73
2022-09-12T21:38:27.559Z,7.87
2022-09-12T21:41:16.414Z,7.17
2022-09-12T21:44:03.573Z,8.40
2022-09-12T21:46:50.577Z,8.17
2022-09-12T21:49:37.746Z,8.50
2022-09-12T21:52:24.678Z,6.97
2022-09-12T21:55:12.695Z,7.33
2022-09-12T21:57:59.739Z,7.00
2022-09-12T22:00:47.264Z,7.60
2022-09-12T22:03:34.513Z,9.00
2022-09-12T22:06:22.669Z,6.50
2022-09-12T22:09:09.806Z,6.87
2022-09-12T22:11:56.746Z,6.93
2022-09-12T22:14:44.623Z,6.90
2022-09-12T22:17:31.622Z,6.93
2022-09-12T22:20:18.847Z,6.13
2022-09-12T22:23:25.194Z,7.50
2022-09-12T22:26:12.616Z,7.77
2022-09-12T22:29:00.226Z,7.40
2022-09-12T22:31:47.577Z,5.80
2022-09-12T22:34:35.163Z,7.10
2022-09-12T22:37:22.118Z,6.83
2022-09-12T22:40:10.031Z,6.87
2022-09-12T22:42:57.142Z,8.67
2022-09-12T22:45:44.042Z,7.30
2022-09-12T22:48:31.082Z,7.63
2022-09-12T22:51:18.924Z,7.10
2022-09-12T22:54:06.789Z,8.00
2022-09-12T22:56:53.761Z,7.93
2022-09-12T22:59:40.944Z,8.67
2022-09-12T23:02:27.922Z,10.63
2022-09-12T23:05:14.993Z,8.93
2022-09-12T23:08:02.106Z,7.10
2022-09-12T23:10:49.529Z,6.90
2022-09-12T23:13:38.045Z,8.43
2022-09-12T23:16:28.429Z,7.30
2022-09-12T23:19:15.514Z,8.23
2022-09-12T23:22:02.482Z,7.30
2022-09-12T23:24:49.486Z,7.30
2022-09-12T23:27:36.502Z,6.40
2022-09-12T23:30:23.484Z,7.10
2022-09-12T23:33:10.430Z,7.40
2022-09-12T23:36:02.332Z,6.47
2022-09-12T23:38:49.956Z,6.83
2022-09-12T23:41:37.769Z,7.23
2022-09-12T23:44:24.721Z,7.93
2022-09-12T23:47:11.871Z,7.03
2022-09-12T23:49:58.843Z,7.27
2022-09-12T23:52:45.873Z,8.07
2022-09-12T23:55:32.791Z,9.53
2022-09-12T23:58:19.942Z,8.33
